This is the latest recevied weather packets stored in our database for station/object OE-11307. If no packets are shown the sender has not sent any weather packets the latest 10 day(s).
| Time | Temp. | Humidity | Pressure | Rain* | Wind** | Luminosity | Snow |
|---|---|---|---|---|---|---|---|
| 1787713886 | 13.33° C | 82% | 852.8 hPa | 0 mm | - | 0 W/m² | - |
| 1787713514 | 13.33° C | 83% | 852.8 hPa | 0 mm | - | 0 W/m² | - |
| 1787712914 | 13.33° C | 82% | 852.7 hPa | 0 mm | - | 0 W/m² | - |
| 1787712086 | 13.89° C | 80% | 852.5 hPa | 0 mm | - | 0 W/m² | - |
| 1787711713 | 13.89° C | 80% | 852.5 hPa | 0 mm | - | 0 W/m² | - |
| 1787711113 | 14.44° C | 80% | 852.6 hPa | 0 mm | - | 0 W/m² | - |
| 1787710287 | 14.44° C | 77% | 852.6 hPa | 0 mm | - | 0 W/m² | - |
| 1787709914 | 14.44° C | 77% | 852.6 hPa | 0 mm | - | 0 W/m² | - |
| 1787709314 | 13.89° C | 80% | 852.5 hPa | 0 mm | - | 0 W/m² | - |
| 1787708487 | 14.44° C | 77% | 852.5 hPa | 0 mm | - | 0 W/m² | - |
| 1787708114 | 14.44° C | 79% | 852.4 hPa | 0 mm | - | 0 W/m² | - |
| 1787707514 | 13.89° C | 82% | 852.3 hPa | 0 mm | - | 0 W/m² | - |
| 1787706686 | 14.44° C | 79% | 852.4 hPa | 0 mm | - | 0 W/m² | - |
| 1787706313 | 14.44° C | 79% | 852.4 hPa | 0 mm | - | 0 W/m² | - |
| 1787705714 | 14.44° C | 78% | 852.4 hPa | 0 mm | - | 0 W/m² | - |
| 1787704887 | 13.89° C | 80% | 852.4 hPa | 0 mm | - | 0 W/m² | - |
| 1787704514 | 13.89° C | 82% | 852.4 hPa | 0 mm | - | 0 W/m² | - |
| 1787703914 | 13.33° C | 83% | 852.4 hPa | 0 mm | - | 0 W/m² | - |
| 1787703086 | 13.33° C | 84% | 852.4 hPa | 0 mm | - | 0 W/m² | - |
| 1787702714 | 13.33° C | 84% | 852.4 hPa | 0 mm | - | 0 W/m² | - |
| 1787702114 | 12.78° C | 85% | 852.3 hPa | 0 mm | - | 0 W/m² | - |
| 1787701286 | 12.78° C | 86% | 852.2 hPa | 0 mm | - | 0 W/m² | - |
| 1787700914 | 12.78° C | 85% | 852.2 hPa | 0 mm | - | 0 W/m² | - |
| 1787700314 | 13.33° C | 83% | 852.2 hPa | 0 mm | - | 0 W/m² | - |
| 1787699714 | 12.78° C | 85% | 852.2 hPa | 0 mm | - | 0 W/m² | - |
* Rain latest hour (hover to see other rain measurements)
** Current wind speed in m/s (hover to see current wind gust speed)